sensor_id;sensor_type;location;lat;lon;timestamp;P1;durP1;ratioP1;P2;durP2;ratioP2
80237;SDS011;69544;42.138;24.742;2023-06-14T00:00:20;3.80;;;2.70;;
80237;SDS011;69544;42.138;24.742;2023-06-14T00:02:46;3.17;;;2.70;;
80237;SDS011;69544;42.138;24.742;2023-06-14T00:05:13;3.55;;;2.58;;
80237;SDS011;69544;42.138;24.742;2023-06-14T00:07:39;4.35;;;2.58;;
80237;SDS011;69544;42.138;24.742;2023-06-14T00:10:13;4.20;;;2.78;;
80237;SDS011;69544;42.138;24.742;2023-06-14T00:12:39;2.75;;;2.45;;
80237;SDS011;69544;42.138;24.742;2023-06-14T00:15:06;3.55;;;2.53;;
80237;SDS011;69544;42.138;24.742;2023-06-14T00:17:34;2.88;;;2.60;;
80237;SDS011;69544;42.138;24.742;2023-06-14T00:20:02;3.30;;;2.80;;
80237;SDS011;69544;42.138;24.742;2023-06-14T00:22:30;3.10;;;2.60;;
80237;SDS011;69544;42.138;24.742;2023-06-14T00:24:56;4.07;;;2.75;;
80237;SDS011;69544;42.138;24.742;2023-06-14T00:27:22;3.17;;;2.45;;
80237;SDS011;69544;42.138;24.742;2023-06-14T00:29:48;2.67;;;2.35;;
80237;SDS011;69544;42.138;24.742;2023-06-14T00:32:13;3.88;;;2.45;;
80237;SDS011;69544;42.138;24.742;2023-06-14T00:34:39;3.78;;;2.53;;
80237;SDS011;69544;42.138;24.742;2023-06-14T00:37:05;3.50;;;2.42;;
80237;SDS011;69544;42.138;24.742;2023-06-14T00:39:31;3.30;;;2.60;;
80237;SDS011;69544;42.138;24.742;2023-06-14T00:41:57;3.53;;;2.60;;
80237;SDS011;69544;42.138;24.742;2023-06-14T00:44:24;2.88;;;2.55;;
80237;SDS011;69544;42.138;24.742;2023-06-14T00:46:50;3.67;;;2.60;;
80237;SDS011;69544;42.138;24.742;2023-06-14T00:49:16;3.03;;;2.42;;
80237;SDS011;69544;42.138;24.742;2023-06-14T00:51:44;3.65;;;2.65;;
80237;SDS011;69544;42.138;24.742;2023-06-14T00:54:10;4.22;;;2.88;;
80237;SDS011;69544;42.138;24.742;2023-06-14T00:56:36;3.03;;;2.67;;
80237;SDS011;69544;42.138;24.742;2023-06-14T00:59:02;3.28;;;2.60;;
80237;SDS011;69544;42.138;24.742;2023-06-14T01:01:28;3.45;;;2.53;;
80237;SDS011;69544;42.138;24.742;2023-06-14T01:03:58;3.20;;;2.35;;
80237;SDS011;69544;42.138;24.742;2023-06-14T01:06:29;2.75;;;2.47;;
80237;SDS011;69544;42.138;24.742;2023-06-14T01:09:07;3.22;;;2.47;;
80237;SDS011;69544;42.138;24.742;2023-06-14T01:11:52;3.30;;;2.50;;
80237;SDS011;69544;42.138;24.742;2023-06-14T01:14:24;4.00;;;2.70;;
80237;SDS011;69544;42.138;24.742;2023-06-14T01:16:52;3.55;;;2.45;;
80237;SDS011;69544;42.138;24.742;2023-06-14T01:19:18;3.38;;;2.60;;
80237;SDS011;69544;42.138;24.742;2023-06-14T01:21:47;4.97;;;2.80;;
80237;SDS011;69544;42.138;24.742;2023-06-14T01:24:16;3.20;;;2.47;;
80237;SDS011;69544;42.138;24.742;2023-06-14T01:26:44;2.92;;;2.50;;
80237;SDS011;69544;42.138;24.742;2023-06-14T01:29:16;2.85;;;2.50;;
80237;SDS011;69544;42.138;24.742;2023-06-14T01:31:42;3.17;;;2.40;;
80237;SDS011;69544;42.138;24.742;2023-06-14T01:34:10;2.63;;;2.42;;
80237;SDS011;69544;42.138;24.742;2023-06-14T01:36:36;3.22;;;2.60;;
80237;SDS011;69544;42.138;24.742;2023-06-14T01:39:06;2.97;;;2.67;;
80237;SDS011;69544;42.138;24.742;2023-06-14T01:41:32;3.40;;;2.53;;
80237;SDS011;69544;42.138;24.742;2023-06-14T01:43:59;2.75;;;2.47;;
80237;SDS011;69544;42.138;24.742;2023-06-14T01:46:26;3.03;;;2.40;;
80237;SDS011;69544;42.138;24.742;2023-06-14T01:48:51;2.47;;;2.28;;
80237;SDS011;69544;42.138;24.742;2023-06-14T01:51:17;3.20;;;2.35;;
80237;SDS011;69544;42.138;24.742;2023-06-14T01:53:43;3.33;;;2.72;;
80237;SDS011;69544;42.138;24.742;2023-06-14T01:56:08;2.92;;;2.50;;
80237;SDS011;69544;42.138;24.742;2023-06-14T01:58:34;3.33;;;2.40;;
80237;SDS011;69544;42.138;24.742;2023-06-14T02:01:00;2.88;;;2.42;;
80237;SDS011;69544;42.138;24.742;2023-06-14T02:03:27;2.75;;;2.45;;
80237;SDS011;69544;42.138;24.742;2023-06-14T02:05:52;2.85;;;2.55;;
80237;SDS011;69544;42.138;24.742;2023-06-14T02:08:19;4.22;;;2.60;;
80237;SDS011;69544;42.138;24.742;2023-06-14T02:10:45;2.85;;;2.38;;
80237;SDS011;69544;42.138;24.742;2023-06-14T02:13:10;3.78;;;2.50;;
80237;SDS011;69544;42.138;24.742;2023-06-14T02:15:36;2.88;;;2.40;;
80237;SDS011;69544;42.138;24.742;2023-06-14T02:18:02;4.30;;;2.50;;
80237;SDS011;69544;42.138;24.742;2023-06-14T02:20:29;2.55;;;2.35;;
80237;SDS011;69544;42.138;24.742;2023-06-14T02:22:55;3.50;;;2.40;;
80237;SDS011;69544;42.138;24.742;2023-06-14T02:25:21;2.50;;;2.30;;
80237;SDS011;69544;42.138;24.742;2023-06-14T02:27:47;3.03;;;2.50;;
80237;SDS011;69544;42.138;24.742;2023-06-14T02:30:12;2.90;;;2.45;;
80237;SDS011;69544;42.138;24.742;2023-06-14T02:32:38;3.15;;;2.50;;
80237;SDS011;69544;42.138;24.742;2023-06-14T02:35:05;3.17;;;2.50;;
80237;SDS011;69544;42.138;24.742;2023-06-14T02:37:32;3.47;;;2.60;;
80237;SDS011;69544;42.138;24.742;2023-06-14T02:40:00;3.67;;;2.53;;
80237;SDS011;69544;42.138;24.742;2023-06-14T02:42:25;3.25;;;2.65;;
80237;SDS011;69544;42.138;24.742;2023-06-14T02:44:51;3.15;;;2.50;;
80237;SDS011;69544;42.138;24.742;2023-06-14T02:47:17;3.08;;;2.28;;
80237;SDS011;69544;42.138;24.742;2023-06-14T02:49:43;2.65;;;2.40;;
80237;SDS011;69544;42.138;24.742;2023-06-14T02:52:11;2.60;;;2.40;;
80237;SDS011;69544;42.138;24.742;2023-06-14T02:54:37;3.92;;;2.50;;
80237;SDS011;69544;42.138;24.742;2023-06-14T02:57:02;3.67;;;2.50;;
80237;SDS011;69544;42.138;24.742;2023-06-14T02:59:28;3.03;;;2.42;;
80237;SDS011;69544;42.138;24.742;2023-06-14T03:01:54;3.53;;;2.53;;
80237;SDS011;69544;42.138;24.742;2023-06-14T03:04:20;2.88;;;2.33;;
80237;SDS011;69544;42.138;24.742;2023-06-14T03:06:46;3.00;;;2.53;;
80237;SDS011;69544;42.138;24.742;2023-06-14T03:09:15;3.22;;;2.33;;
80237;SDS011;69544;42.138;24.742;2023-06-14T03:11:41;2.90;;;2.40;;
80237;SDS011;69544;42.138;24.742;2023-06-14T03:14:06;3.63;;;2.50;;
80237;SDS011;69544;42.138;24.742;2023-06-14T03:16:33;3.58;;;2.55;;
80237;SDS011;69544;42.138;24.742;2023-06-14T03:18:59;3.17;;;2.50;;
80237;SDS011;69544;42.138;24.742;2023-06-14T03:21:25;2.78;;;2.40;;
80237;SDS011;69544;42.138;24.742;2023-06-14T03:23:53;2.83;;;2.53;;
80237;SDS011;69544;42.138;24.742;2023-06-14T03:26:19;3.17;;;2.40;;
80237;SDS011;69544;42.138;24.742;2023-06-14T03:28:45;3.60;;;2.60;;
80237;SDS011;69544;42.138;24.742;2023-06-14T03:31:12;2.85;;;2.50;;
80237;SDS011;69544;42.138;24.742;2023-06-14T03:33:38;4.40;;;2.50;;
80237;SDS011;69544;42.138;24.742;2023-06-14T03:36:05;4.07;;;2.78;;
80237;SDS011;69544;42.138;24.742;2023-06-14T03:38:31;3.65;;;2.25;;
80237;SDS011;69544;42.138;24.742;2023-06-14T03:40:57;2.90;;;2.42;;
80237;SDS011;69544;42.138;24.742;2023-06-14T03:43:23;3.85;;;2.40;;
80237;SDS011;69544;42.138;24.742;2023-06-14T03:45:49;3.15;;;2.35;;
80237;SDS011;69544;42.138;24.742;2023-06-14T03:48:14;2.50;;;2.30;;
80237;SDS011;69544;42.138;24.742;2023-06-14T03:50:40;2.92;;;2.55;;
80237;SDS011;69544;42.138;24.742;2023-06-14T03:53:09;2.92;;;2.58;;
80237;SDS011;69544;42.138;24.742;2023-06-14T03:55:35;3.92;;;2.72;;
80237;SDS011;69544;42.138;24.742;2023-06-14T03:58:02;3.25;;;2.35;;
80237;SDS011;69544;42.138;24.742;2023-06-14T04:00:28;4.65;;;2.70;;
80237;SDS011;69544;42.138;24.742;2023-06-14T04:02:54;3.00;;;2.40;;
80237;SDS011;69544;42.138;24.742;2023-06-14T04:05:20;3.58;;;2.70;;
80237;SDS011;69544;42.138;24.742;2023-06-14T04:07:46;3.60;;;2.55;;
80237;SDS011;69544;42.138;24.742;2023-06-14T04:10:13;2.80;;;2.35;;
80237;SDS011;69544;42.138;24.742;2023-06-14T04:12:40;3.67;;;2.70;;
80237;SDS011;69544;42.138;24.742;2023-06-14T04:15:07;3.40;;;2.70;;
80237;SDS011;69544;42.138;24.742;2023-06-14T04:17:37;2.92;;;2.55;;
80237;SDS011;69544;42.138;24.742;2023-06-14T04:20:03;10.65;;;4.35;;
80237;SDS011;69544;42.138;24.742;2023-06-14T04:22:31;10.40;;;4.50;;
80237;SDS011;69544;42.138;24.742;2023-06-14T04:24:57;12.55;;;4.50;;
80237;SDS011;69544;42.138;24.742;2023-06-14T04:27:24;9.05;;;4.40;;
80237;SDS011;69544;42.138;24.742;2023-06-14T04:29:51;11.77;;;4.80;;
80237;SDS011;69544;42.138;24.742;2023-06-14T04:32:25;10.93;;;4.55;;
80237;SDS011;69544;42.138;24.742;2023-06-14T04:34:54;10.10;;;4.90;;
80237;SDS011;69544;42.138;24.742;2023-06-14T04:37:20;13.35;;;5.25;;
80237;SDS011;69544;42.138;24.742;2023-06-14T04:39:47;11.63;;;4.72;;
80237;SDS011;69544;42.138;24.742;2023-06-14T04:42:14;10.00;;;4.45;;
80237;SDS011;69544;42.138;24.742;2023-06-14T04:44:41;13.68;;;5.00;;
80237;SDS011;69544;42.138;24.742;2023-06-14T04:47:12;11.80;;;5.10;;
80237;SDS011;69544;42.138;24.742;2023-06-14T04:49:39;10.50;;;5.22;;
80237;SDS011;69544;42.138;24.742;2023-06-14T04:52:06;15.00;;;5.00;;
80237;SDS011;69544;42.138;24.742;2023-06-14T04:54:31;15.25;;;5.80;;
80237;SDS011;69544;42.138;24.742;2023-06-14T04:56:58;19.92;;;5.65;;
80237;SDS011;69544;42.138;24.742;2023-06-14T04:59:24;12.88;;;4.70;;
80237;SDS011;69544;42.138;24.742;2023-06-14T05:01:50;18.67;;;5.30;;
80237;SDS011;69544;42.138;24.742;2023-06-14T05:04:17;19.17;;;5.20;;
80237;SDS011;69544;42.138;24.742;2023-06-14T05:06:44;9.95;;;5.30;;
80237;SDS011;69544;42.138;24.742;2023-06-14T05:09:13;19.95;;;5.90;;
80237;SDS011;69544;42.138;24.742;2023-06-14T05:11:40;18.38;;;5.85;;
80237;SDS011;69544;42.138;24.742;2023-06-14T05:14:10;20.80;;;6.93;;
80237;SDS011;69544;42.138;24.742;2023-06-14T05:16:36;10.95;;;6.10;;
80237;SDS011;69544;42.138;24.742;2023-06-14T05:19:02;14.40;;;6.63;;
80237;SDS011;69544;42.138;24.742;2023-06-14T05:21:29;16.80;;;7.40;;
80237;SDS011;69544;42.138;24.742;2023-06-14T05:23:55;15.15;;;6.90;;
80237;SDS011;69544;42.138;24.742;2023-06-14T05:26:21;20.13;;;7.50;;
80237;SDS011;69544;42.138;24.742;2023-06-14T05:28:50;14.55;;;7.38;;
80237;SDS011;69544;42.138;24.742;2023-06-14T05:31:17;17.23;;;8.20;;
80237;SDS011;69544;42.138;24.742;2023-06-14T05:33:43;14.98;;;8.27;;
80237;SDS011;69544;42.138;24.742;2023-06-14T05:36:09;14.40;;;7.78;;
80237;SDS011;69544;42.138;24.742;2023-06-14T05:38:34;17.38;;;8.65;;
80237;SDS011;69544;42.138;24.742;2023-06-14T05:41:00;18.52;;;8.00;;
80237;SDS011;69544;42.138;24.742;2023-06-14T05:43:26;12.18;;;7.53;;
80237;SDS011;69544;42.138;24.742;2023-06-14T05:45:51;13.63;;;7.43;;
80237;SDS011;69544;42.138;24.742;2023-06-14T05:48:17;14.40;;;8.57;;
80237;SDS011;69544;42.138;24.742;2023-06-14T05:50:43;13.25;;;8.15;;
80237;SDS011;69544;42.138;24.742;2023-06-14T05:53:08;11.13;;;7.75;;
80237;SDS011;69544;42.138;24.742;2023-06-14T05:55:34;13.73;;;7.30;;
80237;SDS011;69544;42.138;24.742;2023-06-14T05:58:01;11.50;;;7.57;;
80237;SDS011;69544;42.138;24.742;2023-06-14T06:00:26;16.27;;;9.07;;
80237;SDS011;69544;42.138;24.742;2023-06-14T06:02:52;10.38;;;8.15;;
80237;SDS011;69544;42.138;24.742;2023-06-14T06:05:18;14.88;;;9.50;;
80237;SDS011;69544;42.138;24.742;2023-06-14T06:07:44;20.23;;;9.40;;
80237;SDS011;69544;42.138;24.742;2023-06-14T06:10:11;15.23;;;9.10;;
80237;SDS011;69544;42.138;24.742;2023-06-14T06:12:36;17.83;;;9.10;;
80237;SDS011;69544;42.138;24.742;2023-06-14T06:15:02;16.38;;;9.40;;
80237;SDS011;69544;42.138;24.742;2023-06-14T06:17:29;19.23;;;9.85;;
80237;SDS011;69544;42.138;24.742;2023-06-14T06:19:54;17.15;;;10.00;;
80237;SDS011;69544;42.138;24.742;2023-06-14T06:22:20;20.17;;;10.15;;
80237;SDS011;69544;42.138;24.742;2023-06-14T06:24:46;17.42;;;9.75;;
80237;SDS011;69544;42.138;24.742;2023-06-14T06:27:12;14.55;;;9.35;;
80237;SDS011;69544;42.138;24.742;2023-06-14T06:29:38;26.95;;;9.38;;
80237;SDS011;69544;42.138;24.742;2023-06-14T06:32:04;15.60;;;9.27;;
80237;SDS011;69544;42.138;24.742;2023-06-14T06:34:30;16.35;;;9.50;;
80237;SDS011;69544;42.138;24.742;2023-06-14T06:36:56;15.18;;;9.02;;
80237;SDS011;69544;42.138;24.742;2023-06-14T06:39:21;15.30;;;8.98;;
80237;SDS011;69544;42.138;24.742;2023-06-14T06:41:47;16.33;;;9.02;;
80237;SDS011;69544;42.138;24.742;2023-06-14T06:44:13;16.95;;;9.25;;
80237;SDS011;69544;42.138;24.742;2023-06-14T06:46:39;15.70;;;8.63;;
80237;SDS011;69544;42.138;24.742;2023-06-14T06:49:09;29.10;;;8.70;;
80237;SDS011;69544;42.138;24.742;2023-06-14T06:51:37;18.23;;;7.47;;
80237;SDS011;69544;42.138;24.742;2023-06-14T06:54:07;14.13;;;7.40;;
80237;SDS011;69544;42.138;24.742;2023-06-14T06:56:33;11.45;;;7.00;;
80237;SDS011;69544;42.138;24.742;2023-06-14T06:58:59;14.90;;;6.90;;
80237;SDS011;69544;42.138;24.742;2023-06-14T07:01:25;9.60;;;6.75;;
80237;SDS011;69544;42.138;24.742;2023-06-14T07:03:54;12.13;;;6.70;;
80237;SDS011;69544;42.138;24.742;2023-06-14T07:06:20;14.05;;;7.03;;
80237;SDS011;69544;42.138;24.742;2023-06-14T07:08:46;10.32;;;6.35;;
80237;SDS011;69544;42.138;24.742;2023-06-14T07:11:13;10.13;;;6.53;;
80237;SDS011;69544;42.138;24.742;2023-06-14T07:13:39;12.27;;;6.38;;
80237;SDS011;69544;42.138;24.742;2023-06-14T07:16:05;12.65;;;7.07;;
80237;SDS011;69544;42.138;24.742;2023-06-14T07:18:31;11.45;;;6.70;;
80237;SDS011;69544;42.138;24.742;2023-06-14T07:20:57;10.25;;;6.40;;
80237;SDS011;69544;42.138;24.742;2023-06-14T07:23:23;10.40;;;6.55;;
80237;SDS011;69544;42.138;24.742;2023-06-14T07:25:48;10.88;;;6.72;;
80237;SDS011;69544;42.138;24.742;2023-06-14T07:28:14;8.75;;;6.43;;
80237;SDS011;69544;42.138;24.742;2023-06-14T07:30:41;10.13;;;6.63;;
80237;SDS011;69544;42.138;24.742;2023-06-14T07:33:07;12.15;;;6.57;;
80237;SDS011;69544;42.138;24.742;2023-06-14T07:35:33;11.82;;;6.40;;
80237;SDS011;69544;42.138;24.742;2023-06-14T07:37:59;12.40;;;6.47;;
80237;SDS011;69544;42.138;24.742;2023-06-14T07:40:24;10.63;;;6.32;;
80237;SDS011;69544;42.138;24.742;2023-06-14T07:42:50;8.82;;;6.22;;
80237;SDS011;69544;42.138;24.742;2023-06-14T07:45:16;12.13;;;6.63;;
80237;SDS011;69544;42.138;24.742;2023-06-14T07:47:42;11.50;;;6.30;;
80237;SDS011;69544;42.138;24.742;2023-06-14T07:50:08;10.82;;;6.32;;
80237;SDS011;69544;42.138;24.742;2023-06-14T07:52:34;12.15;;;6.43;;
80237;SDS011;69544;42.138;24.742;2023-06-14T07:54:59;9.75;;;5.95;;
80237;SDS011;69544;42.138;24.742;2023-06-14T07:57:25;8.35;;;6.00;;
80237;SDS011;69544;42.138;24.742;2023-06-14T07:59:51;9.10;;;6.20;;
80237;SDS011;69544;42.138;24.742;2023-06-14T08:02:17;7.60;;;5.93;;
80237;SDS011;69544;42.138;24.742;2023-06-14T08:04:43;8.95;;;6.05;;
80237;SDS011;69544;42.138;24.742;2023-06-14T08:07:09;8.88;;;5.88;;
80237;SDS011;69544;42.138;24.742;2023-06-14T08:09:35;10.40;;;6.15;;
80237;SDS011;69544;42.138;24.742;2023-06-14T08:12:03;9.50;;;5.95;;
80237;SDS011;69544;42.138;24.742;2023-06-14T08:14:32;11.05;;;6.40;;
80237;SDS011;69544;42.138;24.742;2023-06-14T08:16:58;11.57;;;5.95;;
80237;SDS011;69544;42.138;24.742;2023-06-14T08:19:24;9.68;;;6.05;;
80237;SDS011;69544;42.138;24.742;2023-06-14T08:21:50;12.30;;;6.50;;
80237;SDS011;69544;42.138;24.742;2023-06-14T08:24:16;10.10;;;5.70;;
80237;SDS011;69544;42.138;24.742;2023-06-14T08:26:42;9.52;;;5.65;;
80237;SDS011;69544;42.138;24.742;2023-06-14T08:29:07;8.20;;;5.60;;
80237;SDS011;69544;42.138;24.742;2023-06-14T08:31:33;8.55;;;5.95;;
80237;SDS011;69544;42.138;24.742;2023-06-14T08:33:59;10.27;;;5.82;;
80237;SDS011;69544;42.138;24.742;2023-06-14T08:36:25;9.85;;;5.63;;
80237;SDS011;69544;42.138;24.742;2023-06-14T08:38:51;7.68;;;5.45;;
80237;SDS011;69544;42.138;24.742;2023-06-14T08:41:20;9.45;;;5.70;;
80237;SDS011;69544;42.138;24.742;2023-06-14T08:43:50;7.53;;;5.75;;
80237;SDS011;69544;42.138;24.742;2023-06-14T08:46:18;8.48;;;5.70;;
80237;SDS011;69544;42.138;24.742;2023-06-14T08:48:50;9.55;;;5.70;;
80237;SDS011;69544;42.138;24.742;2023-06-14T08:51:20;6.18;;;5.15;;
80237;SDS011;69544;42.138;24.742;2023-06-14T08:53:49;7.30;;;5.40;;
80237;SDS011;69544;42.138;24.742;2023-06-14T08:56:18;6.88;;;5.57;;
80237;SDS011;69544;42.138;24.742;2023-06-14T08:58:45;8.32;;;5.55;;
80237;SDS011;69544;42.138;24.742;2023-06-14T09:01:13;9.65;;;5.65;;
80237;SDS011;69544;42.138;24.742;2023-06-14T09:03:42;8.02;;;5.43;;
80237;SDS011;69544;42.138;24.742;2023-06-14T09:06:09;7.90;;;5.43;;
80237;SDS011;69544;42.138;24.742;2023-06-14T09:08:45;9.60;;;6.00;;
80237;SDS011;69544;42.138;24.742;2023-06-14T09:11:12;9.43;;;5.40;;
80237;SDS011;69544;42.138;24.742;2023-06-14T09:13:40;7.82;;;5.30;;
80237;SDS011;69544;42.138;24.742;2023-06-14T09:16:08;7.10;;;5.30;;
80237;SDS011;69544;42.138;24.742;2023-06-14T09:18:38;9.13;;;5.22;;
80237;SDS011;69544;42.138;24.742;2023-06-14T09:21:12;8.27;;;5.65;;
80237;SDS011;69544;42.138;24.742;2023-06-14T09:23:42;7.70;;;5.45;;
80237;SDS011;69544;42.138;24.742;2023-06-14T09:28:42;7.25;;;5.40;;
80237;SDS011;69544;42.138;24.742;2023-06-14T09:31:18;8.48;;;5.57;;
80237;SDS011;69544;42.138;24.742;2023-06-14T09:33:46;6.75;;;5.25;;
80237;SDS011;69544;42.138;24.742;2023-06-14T09:36:16;8.40;;;5.40;;
80237;SDS011;69544;42.138;24.742;2023-06-14T09:39:07;7.72;;;5.18;;
80237;SDS011;69544;42.138;24.742;2023-06-14T09:41:33;11.80;;;5.60;;
80237;SDS011;69544;42.138;24.742;2023-06-14T09:44:05;8.90;;;5.68;;
80237;SDS011;69544;42.138;24.742;2023-06-14T09:46:35;8.43;;;5.38;;
80237;SDS011;69544;42.138;24.742;2023-06-14T09:49:02;9.45;;;5.60;;
80237;SDS011;69544;42.138;24.742;2023-06-14T09:51:29;7.22;;;5.40;;
80237;SDS011;69544;42.138;24.742;2023-06-14T09:53:59;6.93;;;5.40;;
80237;SDS011;69544;42.138;24.742;2023-06-14T09:58:59;7.28;;;5.30;;
80237;SDS011;69544;42.138;24.742;2023-06-14T10:01:30;9.77;;;5.78;;
80237;SDS011;69544;42.138;24.742;2023-06-14T10:04:07;6.82;;;5.32;;
80237;SDS011;69544;42.138;24.742;2023-06-14T10:06:35;7.70;;;5.55;;
80237;SDS011;69544;42.138;24.742;2023-06-14T10:09:02;8.02;;;5.25;;
80237;SDS011;69544;42.138;24.742;2023-06-14T10:11:30;8.10;;;5.63;;
80237;SDS011;69544;42.138;24.742;2023-06-14T10:13:57;6.53;;;4.80;;
80237;SDS011;69544;42.138;24.742;2023-06-14T10:16:34;7.38;;;5.20;;
80237;SDS011;69544;42.138;24.742;2023-06-14T10:19:17;7.15;;;5.35;;
80237;SDS011;69544;42.138;24.742;2023-06-14T10:21:57;6.82;;;5.28;;
80237;SDS011;69544;42.138;24.742;2023-06-14T10:24:28;7.45;;;5.28;;
80237;SDS011;69544;42.138;24.742;2023-06-14T10:26:57;6.53;;;4.75;;
80237;SDS011;69544;42.138;24.742;2023-06-14T10:29:29;9.00;;;4.90;;
80237;SDS011;69544;42.138;24.742;2023-06-14T10:31:57;6.57;;;5.03;;
80237;SDS011;69544;42.138;24.742;2023-06-14T10:34:25;6.68;;;5.05;;
80237;SDS011;69544;42.138;24.742;2023-06-14T10:37:02;7.18;;;4.93;;
80237;SDS011;69544;42.138;24.742;2023-06-14T10:39:42;7.50;;;5.15;;
80237;SDS011;69544;42.138;24.742;2023-06-14T10:42:11;6.47;;;5.13;;
80237;SDS011;69544;42.138;24.742;2023-06-14T10:44:41;7.25;;;4.88;;
80237;SDS011;69544;42.138;24.742;2023-06-14T10:49:49;7.40;;;5.10;;
80237;SDS011;69544;42.138;24.742;2023-06-14T10:52:19;9.10;;;5.15;;
80237;SDS011;69544;42.138;24.742;2023-06-14T10:57:26;8.40;;;5.10;;
80237;SDS011;69544;42.138;24.742;2023-06-14T10:59:52;6.13;;;4.70;;
80237;SDS011;69544;42.138;24.742;2023-06-14T11:05:05;6.72;;;5.03;;
80237;SDS011;69544;42.138;24.742;2023-06-14T11:12:29;7.13;;;4.97;;
80237;SDS011;69544;42.138;24.742;2023-06-14T11:14:58;5.88;;;4.80;;
80237;SDS011;69544;42.138;24.742;2023-06-14T11:17:24;6.93;;;5.00;;
80237;SDS011;69544;42.138;24.742;2023-06-14T11:19:52;6.38;;;4.93;;
80237;SDS011;69544;42.138;24.742;2023-06-14T11:22:44;7.25;;;4.65;;
80237;SDS011;69544;42.138;24.742;2023-06-14T11:25:13;7.00;;;4.90;;
80237;SDS011;69544;42.138;24.742;2023-06-14T11:27:41;6.35;;;4.85;;
80237;SDS011;69544;42.138;24.742;2023-06-14T11:30:07;7.15;;;5.03;;
80237;SDS011;69544;42.138;24.742;2023-06-14T11:32:35;6.72;;;4.88;;
80237;SDS011;69544;42.138;24.742;2023-06-14T11:35:04;5.80;;;4.80;;
80237;SDS011;69544;42.138;24.742;2023-06-14T11:37:30;6.88;;;4.93;;
80237;SDS011;69544;42.138;24.742;2023-06-14T11:39:59;5.93;;;4.90;;
80237;SDS011;69544;42.138;24.742;2023-06-14T11:42:26;5.57;;;4.63;;
80237;SDS011;69544;42.138;24.742;2023-06-14T11:44:53;6.80;;;5.10;;
80237;SDS011;69544;42.138;24.742;2023-06-14T11:47:20;5.90;;;4.68;;
80237;SDS011;69544;42.138;24.742;2023-06-14T11:49:46;5.88;;;4.90;;
80237;SDS011;69544;42.138;24.742;2023-06-14T11:52:12;6.82;;;4.97;;
80237;SDS011;69544;42.138;24.742;2023-06-14T11:54:38;6.07;;;4.93;;
80237;SDS011;69544;42.138;24.742;2023-06-14T11:57:07;6.15;;;4.78;;
80237;SDS011;69544;42.138;24.742;2023-06-14T11:59:39;5.93;;;4.63;;
80237;SDS011;69544;42.138;24.742;2023-06-14T12:02:05;6.45;;;4.88;;
80237;SDS011;69544;42.138;24.742;2023-06-14T12:04:32;6.22;;;4.78;;
80237;SDS011;69544;42.138;24.742;2023-06-14T12:07:08;6.25;;;4.75;;
80237;SDS011;69544;42.138;24.742;2023-06-14T12:10:03;5.65;;;4.45;;
80237;SDS011;69544;42.138;24.742;2023-06-14T12:12:25;5.30;;;4.47;;
80237;SDS011;69544;42.138;24.742;2023-06-14T12:14:52;8.52;;;4.70;;
80237;SDS011;69544;42.138;24.742;2023-06-14T12:17:20;8.93;;;5.00;;
80237;SDS011;69544;42.138;24.742;2023-06-14T12:19:46;6.10;;;4.72;;
80237;SDS011;69544;42.138;24.742;2023-06-14T12:22:12;6.07;;;4.60;;
80237;SDS011;69544;42.138;24.742;2023-06-14T12:24:38;6.75;;;4.50;;
80237;SDS011;69544;42.138;24.742;2023-06-14T12:27:07;5.53;;;4.55;;
80237;SDS011;69544;42.138;24.742;2023-06-14T12:29:33;5.55;;;4.45;;
80237;SDS011;69544;42.138;24.742;2023-06-14T12:31:59;6.60;;;4.75;;
80237;SDS011;69544;42.138;24.742;2023-06-14T12:34:27;6.78;;;4.60;;
80237;SDS011;69544;42.138;24.742;2023-06-14T12:36:53;5.40;;;4.30;;
80237;SDS011;69544;42.138;24.742;2023-06-14T12:39:19;5.38;;;4.32;;
80237;SDS011;69544;42.138;24.742;2023-06-14T12:41:46;5.78;;;4.43;;
80237;SDS011;69544;42.138;24.742;2023-06-14T12:44:12;5.50;;;4.30;;
80237;SDS011;69544;42.138;24.742;2023-06-14T12:46:39;5.80;;;4.40;;
80237;SDS011;69544;42.138;24.742;2023-06-14T12:49:05;6.22;;;4.50;;
80237;SDS011;69544;42.138;24.742;2023-06-14T12:51:32;5.55;;;4.00;;
80237;SDS011;69544;42.138;24.742;2023-06-14T12:53:58;6.32;;;4.30;;
80237;SDS011;69544;42.138;24.742;2023-06-14T12:56:24;5.70;;;4.43;;
80237;SDS011;69544;42.138;24.742;2023-06-14T12:58:51;6.28;;;4.30;;
80237;SDS011;69544;42.138;24.742;2023-06-14T13:01:17;5.20;;;4.50;;
80237;SDS011;69544;42.138;24.742;2023-06-14T13:03:43;5.55;;;4.40;;
80237;SDS011;69544;42.138;24.742;2023-06-14T13:06:12;5.97;;;4.53;;
80237;SDS011;69544;42.138;24.742;2023-06-14T13:08:38;6.78;;;4.60;;
80237;SDS011;69544;42.138;24.742;2023-06-14T13:11:04;5.95;;;4.65;;
80237;SDS011;69544;42.138;24.742;2023-06-14T13:13:29;6.15;;;4.35;;
80237;SDS011;69544;42.138;24.742;2023-06-14T13:15:55;8.65;;;4.40;;
80237;SDS011;69544;42.138;24.742;2023-06-14T13:18:21;6.32;;;4.55;;
80237;SDS011;69544;42.138;24.742;2023-06-14T13:20:46;5.45;;;4.50;;
80237;SDS011;69544;42.138;24.742;2023-06-14T13:23:12;6.53;;;5.07;;
80237;SDS011;69544;42.138;24.742;2023-06-14T13:25:40;6.90;;;5.00;;
80237;SDS011;69544;42.138;24.742;2023-06-14T13:28:06;7.00;;;5.18;;
80237;SDS011;69544;42.138;24.742;2023-06-14T13:30:32;5.25;;;4.65;;
80237;SDS011;69544;42.138;24.742;2023-06-14T13:32:58;6.30;;;4.70;;
80237;SDS011;69544;42.138;24.742;2023-06-14T13:35:25;6.28;;;5.00;;
80237;SDS011;69544;42.138;24.742;2023-06-14T13:37:51;8.32;;;5.18;;
80237;SDS011;69544;42.138;24.742;2023-06-14T13:40:17;6.88;;;4.97;;
80237;SDS011;69544;42.138;24.742;2023-06-14T13:42:43;7.60;;;5.47;;
80237;SDS011;69544;42.138;24.742;2023-06-14T13:45:10;8.13;;;5.18;;
80237;SDS011;69544;42.138;24.742;2023-06-14T13:47:37;8.88;;;5.38;;
80237;SDS011;69544;42.138;24.742;2023-06-14T13:50:03;9.25;;;5.55;;
80237;SDS011;69544;42.138;24.742;2023-06-14T13:52:29;6.82;;;5.38;;
80237;SDS011;69544;42.138;24.742;2023-06-14T13:54:55;7.10;;;5.40;;
80237;SDS011;69544;42.138;24.742;2023-06-14T13:57:22;9.25;;;5.75;;
80237;SDS011;69544;42.138;24.742;2023-06-14T13:59:48;9.50;;;5.72;;
80237;SDS011;69544;42.138;24.742;2023-06-14T14:02:13;7.22;;;5.95;;
80237;SDS011;69544;42.138;24.742;2023-06-14T14:04:39;9.75;;;6.47;;
80237;SDS011;69544;42.138;24.742;2023-06-14T14:07:06;7.80;;;6.43;;
80237;SDS011;69544;42.138;24.742;2023-06-14T14:09:32;7.68;;;5.90;;
80237;SDS011;69544;42.138;24.742;2023-06-14T14:11:59;9.13;;;6.22;;
80237;SDS011;69544;42.138;24.742;2023-06-14T14:14:27;8.32;;;6.00;;
80237;SDS011;69544;42.138;24.742;2023-06-14T14:16:53;8.50;;;6.13;;
80237;SDS011;69544;42.138;24.742;2023-06-14T14:19:19;9.52;;;6.05;;
80237;SDS011;69544;42.138;24.742;2023-06-14T14:21:47;9.93;;;6.20;;
80237;SDS011;69544;42.138;24.742;2023-06-14T14:24:13;9.70;;;6.30;;
80237;SDS011;69544;42.138;24.742;2023-06-14T14:26:39;9.52;;;6.05;;
80237;SDS011;69544;42.138;24.742;2023-06-14T14:29:05;12.48;;;6.40;;
80237;SDS011;69544;42.138;24.742;2023-06-14T14:31:31;10.68;;;5.95;;
80237;SDS011;69544;42.138;24.742;2023-06-14T14:33:57;9.00;;;5.88;;
80237;SDS011;69544;42.138;24.742;2023-06-14T14:36:23;9.13;;;5.80;;
80237;SDS011;69544;42.138;24.742;2023-06-14T14:38:48;7.22;;;5.68;;
80237;SDS011;69544;42.138;24.742;2023-06-14T14:41:16;8.23;;;6.05;;
80237;SDS011;69544;42.138;24.742;2023-06-14T14:43:42;8.55;;;6.00;;
80237;SDS011;69544;42.138;24.742;2023-06-14T14:46:08;8.77;;;5.70;;
80237;SDS011;69544;42.138;24.742;2023-06-14T14:48:34;9.10;;;5.60;;